createdAt,value
2022-08-30T00:01:30.761Z,20.73
2022-08-30T00:04:32.730Z,17.63
2022-08-30T00:07:35.137Z,18.45
2022-08-30T00:10:38.669Z,18.50
2022-08-30T00:13:42.597Z,19.08
2022-08-30T00:16:44.756Z,17.95
2022-08-30T00:19:46.689Z,18.05
2022-08-30T00:22:48.785Z,19.30
2022-08-30T00:25:50.652Z,18.50
2022-08-30T00:28:52.635Z,18.80
2022-08-30T00:31:54.524Z,18.20
2022-08-30T00:34:56.696Z,17.88
2022-08-30T00:37:58.823Z,17.73
2022-08-30T00:41:01.915Z,18.30
2022-08-30T00:44:04.525Z,18.40
2022-08-30T00:47:06.630Z,18.83
2022-08-30T00:50:10.261Z,20.40
2022-08-30T00:53:18.956Z,18.40
2022-08-30T00:56:23.436Z,25.40
2022-08-30T00:59:27.574Z,19.38
2022-08-30T01:02:31.319Z,17.08
2022-08-30T01:05:33.330Z,17.98
2022-08-30T01:08:35.705Z,18.63
2022-08-30T01:11:38.642Z,18.03
2022-08-30T01:14:40.670Z,17.20
2022-08-30T01:17:44.776Z,16.77
2022-08-30T01:21:01.401Z,17.58
2022-08-30T01:24:04.816Z,18.08
2022-08-30T01:27:06.715Z,18.38
2022-08-30T01:30:10.454Z,18.63
2022-08-30T01:33:13.372Z,18.88
2022-08-30T01:36:17.350Z,20.17
2022-08-30T01:39:19.425Z,20.45
2022-08-30T01:42:22.313Z,20.48
2022-08-30T01:45:24.270Z,19.58
2022-08-30T01:48:30.849Z,18.63
2022-08-30T01:51:33.303Z,18.13
2022-08-30T01:54:38.225Z,18.83
2022-08-30T01:57:41.430Z,18.48
2022-08-30T02:00:43.379Z,19.23
2022-08-30T02:03:46.415Z,21.38
2022-08-30T02:06:49.228Z,25.20
2022-08-30T02:09:52.375Z,34.00
2022-08-30T02:12:54.282Z,28.30
2022-08-30T02:15:56.397Z,25.55
2022-08-30T02:18:58.892Z,17.63
2022-08-30T02:22:00.834Z,17.63
2022-08-30T02:25:06.902Z,16.08
2022-08-30T02:28:14.963Z,16.63
2022-08-30T02:31:21.047Z,17.42
2022-08-30T02:34:23.146Z,17.60
2022-08-30T02:37:25.084Z,18.38
2022-08-30T02:40:27.075Z,18.10
2022-08-30T02:43:29.124Z,18.77
2022-08-30T02:46:33.422Z,16.58
2022-08-30T02:49:37.047Z,17.23
2022-08-30T02:52:38.975Z,19.38
2022-08-30T02:55:42.577Z,18.92
2022-08-30T02:58:46.268Z,19.07
2022-08-30T03:01:49.062Z,19.20
2022-08-30T03:04:51.259Z,21.02
2022-08-30T03:07:54.227Z,20.45
2022-08-30T03:10:57.277Z,18.65
2022-08-30T03:13:59.559Z,19.70
2022-08-30T03:17:01.592Z,20.27
2022-08-30T03:20:04.998Z,19.02
2022-08-30T03:23:06.899Z,18.92
2022-08-30T03:26:12.195Z,18.50
2022-08-30T03:29:14.124Z,17.52
2022-08-30T03:32:16.059Z,19.27
2022-08-30T03:35:18.664Z,17.35
2022-08-30T03:38:20.585Z,19.15
2022-08-30T03:41:22.527Z,18.48
2022-08-30T03:44:24.957Z,18.00
2022-08-30T03:47:26.853Z,19.10
2022-08-30T03:50:30.484Z,16.83
2022-08-30T03:53:32.828Z,19.02
2022-08-30T03:56:34.754Z,18.67
2022-08-30T03:59:36.699Z,18.42
2022-08-30T04:02:39.298Z,19.02
2022-08-30T04:05:41.272Z,18.10
2022-08-30T04:08:44.873Z,18.13
2022-08-30T04:11:47.780Z,18.75
2022-08-30T04:14:49.854Z,17.70
2022-08-30T04:17:53.842Z,17.90
2022-08-30T04:20:56.070Z,17.00
2022-08-30T04:23:57.973Z,17.88
2022-08-30T04:27:00.151Z,20.00
2022-08-30T04:30:03.558Z,17.70
2022-08-30T04:33:05.661Z,18.00
2022-08-30T04:36:09.322Z,18.00
2022-08-30T04:39:11.283Z,17.55
2022-08-30T04:42:13.236Z,22.05
2022-08-30T04:45:16.727Z,21.08
2022-08-30T04:48:18.917Z,19.55
2022-08-30T04:51:20.857Z,17.70
2022-08-30T04:54:22.813Z,17.63
2022-08-30T04:57:26.258Z,19.73
2022-08-30T05:00:28.241Z,20.55
2022-08-30T05:03:30.533Z,20.35
2022-08-30T05:06:32.429Z,19.93
2022-08-30T05:09:34.334Z,17.50
2022-08-30T05:12:36.218Z,17.95
2022-08-30T05:15:40.323Z,19.25
2022-08-30T05:18:42.227Z,18.73
2022-08-30T05:21:44.178Z,17.33
2022-08-30T05:24:46.070Z,18.17
2022-08-30T05:27:48.195Z,17.40
2022-08-30T05:30:50.122Z,17.60
2022-08-30T05:33:53.071Z,16.73
2022-08-30T05:36:55.010Z,17.00
2022-08-30T05:39:57.560Z,17.13
2022-08-30T05:43:00.280Z,17.15
2022-08-30T05:46:13.162Z,15.85
2022-08-30T05:49:15.820Z,16.27
2022-08-30T05:52:18.370Z,15.32
2022-08-30T05:55:20.418Z,17.02
2022-08-30T05:58:22.431Z,17.77
2022-08-30T06:01:30.122Z,18.40
2022-08-30T06:04:32.149Z,17.33
2022-08-30T06:07:35.178Z,16.55
2022-08-30T06:13:40.033Z,16.73
2022-08-30T06:19:47.935Z,17.42
2022-08-30T06:22:49.886Z,17.05
2022-08-30T06:25:51.764Z,15.82
2022-08-30T06:28:53.882Z,16.02
2022-08-30T06:31:58.367Z,14.23
2022-08-30T06:35:00.374Z,14.80
2022-08-30T06:38:02.787Z,16.20
2022-08-30T06:41:09.733Z,15.23
2022-08-30T06:44:11.645Z,15.40
2022-08-30T06:47:13.641Z,17.23
2022-08-30T06:50:17.592Z,15.77
2022-08-30T06:53:19.935Z,15.23
2022-08-30T06:56:23.787Z,14.40
2022-08-30T06:59:27.034Z,15.55
2022-08-30T07:02:29.273Z,15.25
2022-08-30T07:05:32.712Z,14.17
2022-08-30T07:08:34.984Z,14.15
2022-08-30T07:11:38.050Z,14.95
2022-08-30T07:14:40.678Z,13.57
2022-08-30T07:18:01.268Z,13.50
2022-08-30T07:21:15.880Z,13.20
2022-08-30T07:24:18.765Z,11.50
2022-08-30T07:30:23.441Z,10.55
2022-08-30T07:33:25.582Z,12.20
2022-08-30T07:36:27.523Z,10.77
2022-08-30T07:39:29.446Z,10.45
2022-08-30T07:42:34.176Z,11.15
2022-08-30T07:45:38.331Z,10.88
2022-08-30T07:48:40.276Z,11.18
2022-08-30T07:51:42.525Z,11.43
2022-08-30T07:54:44.578Z,11.20
2022-08-30T07:57:47.733Z,11.63
2022-08-30T08:00:49.698Z,11.63
2022-08-30T08:03:52.123Z,10.27
2022-08-30T08:06:55.101Z,10.23
2022-08-30T08:09:57.001Z,11.27
2022-08-30T08:12:59.291Z,10.98
2022-08-30T08:16:01.345Z,11.07
2022-08-30T08:19:08.570Z,10.47
2022-08-30T08:22:25.755Z,10.05
2022-08-30T08:25:27.793Z,9.52
2022-08-30T08:28:30.035Z,8.90
2022-08-30T08:31:33.767Z,8.70
2022-08-30T08:34:36.757Z,8.93
2022-08-30T08:40:55.687Z,8.43
2022-08-30T08:43:58.079Z,8.88
2022-08-30T08:47:13.928Z,8.68
2022-08-30T08:50:20.113Z,9.20
2022-08-30T08:53:46.217Z,9.68
2022-08-30T08:56:48.996Z,10.07
2022-08-30T08:59:54.352Z,9.53
2022-08-30T09:03:03.063Z,8.65
2022-08-30T09:06:15.073Z,9.18
2022-08-30T09:09:20.524Z,8.63
2022-08-30T09:12:24.766Z,9.35
2022-08-30T09:15:33.188Z,8.20
2022-08-30T09:18:52.664Z,8.55
2022-08-30T09:22:31.261Z,8.23
2022-08-30T09:25:33.162Z,9.52
2022-08-30T09:28:50.506Z,8.50
2022-08-30T09:32:22.486Z,8.30
2022-08-30T09:35:34.761Z,8.55
2022-08-30T09:38:36.798Z,8.85
2022-08-30T09:41:42.386Z,8.70
2022-08-30T09:44:44.267Z,9.45
2022-08-30T09:47:46.194Z,8.60
2022-08-30T09:50:55.010Z,9.87
2022-08-30T09:54:20.577Z,8.98
2022-08-30T09:57:39.607Z,10.07
2022-08-30T10:00:50.893Z,10.30
2022-08-30T10:04:08.430Z,10.05
2022-08-30T10:07:22.815Z,9.25
2022-08-30T10:10:45.623Z,8.18
2022-08-30T10:14:12.536Z,9.05
2022-08-30T10:17:41.883Z,9.27
2022-08-30T10:20:52.882Z,8.85
2022-08-30T10:24:02.901Z,7.95
2022-08-30T10:27:19.221Z,8.50
2022-08-30T10:30:24.107Z,9.40
2022-08-30T10:33:42.709Z,9.43
2022-08-30T10:36:50.934Z,8.55
2022-08-30T10:40:28.323Z,7.93
2022-08-30T10:43:51.157Z,8.25
2022-08-30T10:47:14.434Z,8.68
2022-08-30T10:50:42.575Z,8.75
2022-08-30T10:53:53.610Z,9.32
2022-08-30T10:56:56.500Z,7.13
2022-08-30T11:00:07.322Z,7.75
2022-08-30T11:03:42.733Z,8.30
2022-08-30T11:06:56.472Z,8.90
2022-08-30T11:10:16.157Z,8.43
2022-08-30T11:13:23.193Z,8.55
2022-08-30T11:16:37.392Z,8.02
2022-08-30T11:19:41.679Z,7.78
2022-08-30T11:23:18.850Z,7.60
2022-08-30T11:26:51.495Z,6.95
2022-08-30T11:29:53.443Z,7.32
2022-08-30T11:33:02.448Z,6.80
2022-08-30T11:36:04.417Z,7.40
2022-08-30T11:39:09.941Z,7.10
2022-08-30T11:42:17.920Z,7.57
2022-08-30T11:45:26.760Z,7.18
2022-08-30T11:48:54.277Z,7.05
2022-08-30T11:52:27.937Z,6.78
2022-08-30T11:59:16.326Z,7.35
2022-08-30T12:03:01.573Z,7.03
2022-08-30T12:06:07.656Z,7.18
2022-08-30T12:09:30.796Z,7.15
2022-08-30T12:12:39.398Z,7.50
2022-08-30T12:16:06.359Z,7.25
2022-08-30T12:19:20.877Z,7.38
2022-08-30T12:22:23.107Z,7.70
2022-08-30T12:25:33.604Z,6.78
2022-08-30T12:28:37.474Z,7.40
2022-08-30T12:31:49.925Z,6.80
2022-08-30T12:34:55.714Z,7.97
2022-08-30T12:38:05.991Z,7.32
2022-08-30T12:41:08.059Z,7.38
2022-08-30T12:44:23.294Z,7.80
2022-08-30T12:47:41.984Z,7.88
2022-08-30T12:50:57.059Z,8.10
2022-08-30T12:54:30.261Z,8.18
2022-08-30T12:57:42.959Z,8.52
2022-08-30T13:00:47.225Z,8.55
2022-08-30T13:04:23.143Z,8.63
2022-08-30T13:07:27.404Z,8.13
2022-08-30T13:10:29.335Z,8.40
2022-08-30T13:13:33.875Z,8.27
2022-08-30T13:16:40.338Z,7.50
2022-08-30T13:19:59.129Z,8.07
2022-08-30T13:23:07.589Z,7.97
2022-08-30T13:26:11.497Z,8.18
2022-08-30T13:32:21.239Z,7.88
2022-08-30T13:35:24.002Z,7.78
2022-08-30T13:41:30.114Z,7.50
2022-08-30T13:44:36.379Z,7.10
2022-08-30T13:47:46.926Z,7.13
2022-08-30T13:50:48.895Z,7.15
2022-08-30T13:53:53.301Z,7.50
2022-08-30T13:56:56.651Z,7.85
2022-08-30T13:59:59.184Z,6.78
2022-08-30T14:03:02.008Z,8.20
2022-08-30T14:06:31.853Z,9.57
2022-08-30T14:09:29.148Z,7.10
2022-08-30T14:19:19.247Z,8.38
2022-08-30T14:22:21.225Z,8.55
2022-08-30T14:25:23.520Z,6.82
2022-08-30T14:28:28.622Z,6.97
2022-08-30T14:31:32.612Z,6.75
2022-08-30T14:34:35.623Z,7.13
2022-08-30T14:37:37.555Z,6.30
2022-08-30T14:40:41.401Z,6.28
2022-08-30T14:43:43.699Z,7.57
2022-08-30T14:49:47.986Z,6.32
2022-08-30T14:52:49.899Z,7.45
2022-08-30T14:55:51.882Z,6.50
2022-08-30T14:59:00.302Z,7.32
2022-08-30T15:02:03.344Z,7.82
2022-08-30T15:05:06.965Z,7.18
2022-08-30T15:08:10.480Z,7.28
2022-08-30T15:11:14.881Z,7.35
2022-08-30T15:14:17.320Z,7.03
2022-08-30T15:17:38.511Z,6.90
2022-08-30T15:20:50.142Z,7.10
2022-08-30T15:23:52.625Z,7.22
2022-08-30T15:26:54.716Z,6.80
2022-08-30T15:29:56.890Z,6.53
2022-08-30T15:32:58.795Z,7.10
2022-08-30T15:36:02.118Z,6.95
2022-08-30T15:39:07.365Z,6.60
2022-08-30T15:42:09.340Z,6.68
2022-08-30T15:45:13.913Z,6.55
2022-08-30T15:48:19.788Z,6.38
2022-08-30T15:51:22.862Z,6.45
2022-08-30T15:54:26.569Z,6.25
2022-08-30T15:57:28.855Z,6.00
2022-08-30T16:00:31.829Z,6.15
2022-08-30T16:03:35.419Z,6.35
2022-08-30T16:06:40.518Z,6.63
2022-08-30T16:09:43.828Z,6.30
2022-08-30T16:12:45.783Z,7.67
2022-08-30T16:15:47.733Z,7.23
2022-08-30T16:18:54.266Z,6.38
2022-08-30T16:21:57.223Z,6.15
2022-08-30T16:24:59.093Z,7.07
2022-08-30T16:28:01.518Z,8.15
2022-08-30T16:31:06.102Z,6.68
2022-08-30T16:34:10.522Z,8.25
2022-08-30T16:37:12.665Z,7.47
2022-08-30T16:40:14.832Z,7.40
2022-08-30T16:43:17.206Z,6.82
2022-08-30T16:46:22.954Z,7.88
2022-08-30T16:49:25.780Z,8.32
2022-08-30T16:52:27.789Z,9.63
2022-08-30T16:55:29.959Z,10.93
2022-08-30T16:58:32.002Z,12.05
2022-08-30T17:01:39.632Z,8.47
2022-08-30T17:04:43.997Z,10.88
2022-08-30T17:07:45.968Z,11.07
2022-08-30T17:10:49.908Z,10.95
2022-08-30T17:13:52.626Z,11.05
2022-08-30T17:16:54.684Z,10.70
2022-08-30T17:19:56.698Z,10.47
2022-08-30T17:22:59.521Z,10.83
2022-08-30T17:26:04.499Z,12.95
2022-08-30T17:29:07.799Z,11.93
2022-08-30T17:32:12.073Z,11.07
2022-08-30T17:35:14.903Z,11.88
2022-08-30T17:38:20.511Z,10.70
2022-08-30T17:41:22.629Z,11.25
2022-08-30T17:44:29.062Z,11.60
2022-08-30T17:47:32.388Z,10.63
2022-08-30T17:50:38.455Z,11.02
2022-08-30T17:53:40.685Z,11.07
2022-08-30T17:56:43.723Z,12.40
2022-08-30T17:59:46.095Z,10.70
2022-08-30T18:02:48.123Z,12.60
2022-08-30T18:05:50.945Z,12.20
2022-08-30T18:08:52.879Z,12.45
2022-08-30T18:11:56.466Z,13.80
2022-08-30T18:14:58.748Z,14.65
2022-08-30T18:18:00.891Z,14.23
2022-08-30T18:21:13.869Z,12.98
2022-08-30T18:24:16.827Z,14.30
2022-08-30T18:27:18.871Z,14.77
2022-08-30T18:30:21.032Z,13.63
2022-08-30T18:33:25.051Z,11.93
2022-08-30T18:36:28.283Z,11.68
2022-08-30T18:39:34.485Z,11.10
2022-08-30T18:42:36.993Z,10.73
2022-08-30T18:45:43.490Z,10.75
2022-08-30T18:48:46.770Z,10.52
2022-08-30T18:51:49.459Z,9.55
2022-08-30T18:58:15.016Z,9.70
2022-08-30T19:01:22.906Z,9.60
2022-08-30T19:04:35.132Z,9.13
2022-08-30T19:07:39.057Z,8.07
2022-08-30T19:10:41.772Z,8.48
2022-08-30T19:13:45.102Z,8.75
2022-08-30T19:16:47.187Z,8.18
2022-08-30T19:19:52.117Z,8.82
2022-08-30T19:23:09.294Z,8.70
2022-08-30T19:26:12.623Z,8.80
2022-08-30T19:29:16.453Z,8.98
2022-08-30T19:32:18.680Z,9.30
2022-08-30T19:35:22.091Z,10.10
2022-08-30T19:38:24.418Z,10.50
2022-08-30T19:41:28.407Z,9.95
2022-08-30T19:44:30.433Z,10.25
2022-08-30T19:47:34.127Z,9.73
2022-08-30T19:50:36.958Z,10.07
2022-08-30T19:53:40.901Z,10.98
2022-08-30T19:56:43.655Z,10.98
2022-08-30T19:59:45.664Z,12.10
2022-08-30T20:02:50.623Z,9.98
2022-08-30T20:05:53.404Z,12.07
2022-08-30T20:08:57.840Z,12.50
2022-08-30T20:12:01.583Z,11.48
2022-08-30T20:15:09.343Z,11.65
2022-08-30T20:18:13.474Z,12.70
2022-08-30T20:21:17.021Z,13.07
2022-08-30T20:24:19.621Z,14.63
2022-08-30T20:24:29.874Z,10.57
2022-08-30T20:27:21.538Z,14.02
2022-08-30T20:30:23.452Z,12.70
2022-08-30T20:33:26.890Z,13.60
2022-08-30T20:36:29.152Z,14.23
2022-08-30T20:39:31.558Z,13.87
2022-08-30T20:42:33.638Z,14.80
2022-08-30T20:45:37.228Z,13.82
2022-08-30T20:48:39.661Z,12.77
2022-08-30T20:51:42.481Z,12.53
2022-08-30T20:54:45.088Z,10.63
2022-08-30T20:57:47.337Z,10.88
2022-08-30T21:00:53.983Z,11.93
2022-08-30T21:03:55.993Z,13.75
2022-08-30T21:07:02.324Z,12.98
2022-08-30T21:10:05.644Z,13.20
2022-08-30T21:13:09.159Z,13.30
2022-08-30T21:16:12.388Z,13.77
2022-08-30T21:19:14.389Z,13.35
2022-08-30T21:22:16.296Z,17.25
2022-08-30T21:25:18.586Z,15.65
2022-08-30T21:28:20.547Z,16.07
2022-08-30T21:31:26.576Z,14.48
2022-08-30T21:34:28.542Z,13.32
2022-08-30T21:37:35.910Z,12.38
2022-08-30T21:40:38.291Z,12.95
2022-08-30T21:43:40.402Z,12.00
2022-08-30T21:46:43.639Z,13.07
2022-08-30T21:49:45.711Z,12.63
2022-08-30T21:52:48.327Z,12.63
2022-08-30T21:55:51.011Z,11.90
2022-08-30T21:58:54.884Z,12.30
2022-08-30T22:04:59.330Z,12.60
2022-08-30T22:08:01.656Z,12.03
2022-08-30T22:11:08.323Z,12.87
2022-08-30T22:14:11.975Z,12.68
2022-08-30T22:17:14.002Z,12.48
2022-08-30T22:20:18.711Z,12.73
2022-08-30T22:23:20.941Z,11.60
2022-08-30T22:26:24.101Z,13.77
2022-08-30T22:32:28.735Z,12.90
2022-08-30T22:35:30.729Z,13.13
2022-08-30T22:38:32.991Z,12.88
2022-08-30T22:41:36.189Z,12.80
2022-08-30T22:47:40.121Z,12.65
2022-08-30T22:50:42.324Z,12.38
2022-08-30T22:53:45.534Z,12.05
2022-08-30T22:59:49.604Z,11.18
2022-08-30T23:02:53.124Z,11.30
2022-08-30T23:05:55.345Z,12.25
2022-08-30T23:08:57.817Z,11.50
2022-08-30T23:11:59.848Z,11.30
2022-08-30T23:15:01.727Z,11.95
2022-08-30T23:18:04.503Z,12.45
2022-08-30T23:21:18.339Z,11.90
2022-08-30T23:24:38.550Z,10.95
2022-08-30T23:28:02.723Z,10.23
2022-08-30T23:31:36.271Z,11.52
2022-08-30T23:34:57.147Z,12.68
2022-08-30T23:38:21.397Z,10.43
2022-08-30T23:41:41.853Z,9.77
2022-08-30T23:45:02.496Z,9.48
2022-08-30T23:48:22.880Z,10.02
2022-08-30T23:51:43.225Z,10.20
2022-08-30T23:55:03.584Z,10.90
2022-08-30T23:58:24.026Z,11.38
